createdAt,value
2018-06-03T00:00:01.108Z,16.60
2018-06-03T00:02:27.556Z,16.50
2018-06-03T00:04:53.977Z,16.50
2018-06-03T00:07:21.244Z,16.60
2018-06-03T00:09:47.747Z,16.60
2018-06-03T00:12:14.228Z,16.60
2018-06-03T00:14:42.173Z,16.60
2018-06-03T00:17:08.819Z,16.60
2018-06-03T00:19:35.488Z,16.70
2018-06-03T00:22:01.826Z,16.60
2018-06-03T00:24:28.167Z,16.60
2018-06-03T00:26:54.502Z,16.60
2018-06-03T00:29:20.824Z,16.50
2018-06-03T00:31:47.172Z,16.60
2018-06-03T00:34:13.520Z,16.60
2018-06-03T00:36:44.640Z,16.60
2018-06-03T00:39:10.982Z,16.50
2018-06-03T00:41:37.349Z,16.40
2018-06-03T00:44:03.716Z,16.30
2018-06-03T00:46:30.030Z,16.30
2018-06-03T00:48:57.112Z,16.10
2018-06-03T00:51:23.468Z,16.10
2018-06-03T00:53:49.800Z,16.20
2018-06-03T00:56:28.209Z,16.20
2018-06-03T00:58:54.522Z,16.20
2018-06-03T01:01:20.837Z,16.20
2018-06-03T01:03:47.177Z,16.10
2018-06-03T01:06:13.508Z,16.00
2018-06-03T01:08:39.864Z,15.90
2018-06-03T01:11:06.232Z,15.90
2018-06-03T01:13:33.354Z,15.90
2018-06-03T01:15:59.662Z,15.90
2018-06-03T01:18:25.984Z,15.90
2018-06-03T01:20:52.319Z,15.90
2018-06-03T01:23:18.657Z,15.90
2018-06-03T01:25:44.998Z,15.90
2018-06-03T01:28:11.348Z,15.90
2018-06-03T01:30:37.674Z,15.90
2018-06-03T01:33:04.000Z,15.80
2018-06-03T01:35:30.308Z,15.80
2018-06-03T01:37:56.642Z,15.80
2018-06-03T01:40:22.967Z,15.80
2018-06-03T01:42:49.328Z,15.80
2018-06-03T01:45:15.656Z,15.70
2018-06-03T01:47:41.956Z,15.70
2018-06-03T01:50:08.290Z,15.70
2018-06-03T01:52:34.636Z,15.60
2018-06-03T01:55:00.966Z,15.60
2018-06-03T01:57:27.334Z,15.60
2018-06-03T01:59:53.652Z,15.60
2018-06-03T02:02:20.023Z,15.50
2018-06-03T02:04:46.371Z,15.40
2018-06-03T02:07:12.740Z,15.40
2018-06-03T02:09:39.037Z,15.40
2018-06-03T02:12:05.347Z,15.40
2018-06-03T02:14:32.438Z,15.40
2018-06-03T02:16:58.764Z,15.30
2018-06-03T02:19:25.080Z,15.40
2018-06-03T02:21:51.411Z,15.30
2018-06-03T02:24:17.743Z,15.30
2018-06-03T02:26:44.052Z,15.20
2018-06-03T02:29:11.159Z,15.20
2018-06-03T02:31:37.480Z,15.10
2018-06-03T02:34:03.791Z,15.20
2018-06-03T02:36:30.146Z,15.10
2018-06-03T02:38:57.180Z,15.10
2018-06-03T02:41:23.529Z,15.10
2018-06-03T02:43:49.955Z,15.00
2018-06-03T02:46:16.274Z,15.10
2018-06-03T02:48:42.697Z,15.00
2018-06-03T02:51:09.102Z,15.10
2018-06-03T02:53:36.175Z,15.10
2018-06-03T02:56:02.545Z,15.00
2018-06-03T02:58:28.916Z,15.10
2018-06-03T03:00:56.026Z,15.00
2018-06-03T03:03:22.439Z,15.00
2018-06-03T03:05:48.784Z,15.00
2018-06-03T03:08:15.138Z,15.00
2018-06-03T03:10:41.482Z,15.00
2018-06-03T03:13:08.546Z,14.90
2018-06-03T03:15:34.941Z,14.90
2018-06-03T03:18:01.276Z,14.90
2018-06-03T03:20:27.632Z,14.90
2018-06-03T03:22:54.872Z,14.90
2018-06-03T03:25:22.006Z,14.80
2018-06-03T03:27:49.502Z,14.80
2018-06-03T03:30:16.592Z,14.80
2018-06-03T03:32:42.965Z,14.80
2018-06-03T03:35:09.318Z,14.60
2018-06-03T03:37:35.637Z,14.60
2018-06-03T03:40:02.756Z,14.70
2018-06-03T03:42:29.116Z,14.70
2018-06-03T03:44:56.178Z,14.80
2018-06-03T03:47:22.505Z,14.80
2018-06-03T03:49:49.543Z,14.80
2018-06-03T03:52:16.598Z,14.80
2018-06-03T03:54:43.696Z,14.80
2018-06-03T03:57:10.062Z,14.80
2018-06-03T03:59:37.139Z,14.80
2018-06-03T04:02:03.518Z,14.80
2018-06-03T04:04:29.869Z,14.90
2018-06-03T04:06:56.206Z,15.00
2018-06-03T04:09:22.536Z,15.00
2018-06-03T04:11:48.848Z,15.00
2018-06-03T04:14:15.248Z,15.00
2018-06-03T04:16:41.622Z,15.10
2018-06-03T04:19:42.542Z,15.10
2018-06-03T04:22:10.294Z,15.20
2018-06-03T04:24:38.173Z,15.20
2018-06-03T04:27:05.910Z,15.10
2018-06-03T04:29:33.686Z,15.20
2018-06-03T04:32:01.456Z,15.30
2018-06-03T04:34:29.228Z,15.40
2018-06-03T04:36:57.037Z,15.50
2018-06-03T04:39:24.855Z,15.60
2018-06-03T04:41:52.624Z,15.70
2018-06-03T04:44:20.314Z,15.80
2018-06-03T04:46:47.954Z,15.70
2018-06-03T04:49:15.642Z,15.80
2018-06-03T04:51:43.382Z,15.70
2018-06-03T04:54:11.048Z,16.10
2018-06-03T04:59:13.267Z,16.80
2018-06-03T05:01:41.056Z,17.00
2018-06-03T05:04:08.912Z,17.20
2018-06-03T05:06:36.692Z,17.10
2018-06-03T05:09:06.304Z,17.00
2018-06-03T05:11:33.994Z,17.00
2018-06-03T05:14:01.750Z,17.00
2018-06-03T05:16:29.450Z,17.10
2018-06-03T05:18:57.166Z,17.30
2018-06-03T05:21:24.914Z,17.30
2018-06-03T05:23:52.616Z,17.40
2018-06-03T05:26:20.798Z,17.40
2018-06-03T05:28:48.577Z,17.60
2018-06-03T05:31:16.318Z,17.70
2018-06-03T05:33:44.112Z,17.90
2018-06-03T05:36:11.885Z,18.10
2018-06-03T05:38:39.665Z,18.60
2018-06-03T05:41:07.466Z,19.40
2018-06-03T05:43:35.177Z,19.40
2018-06-03T05:46:03.884Z,19.50
2018-06-03T05:48:31.636Z,20.20
2018-06-03T05:50:59.410Z,20.80
2018-06-03T05:53:27.207Z,21.10
2018-06-03T05:55:55.019Z,21.20
2018-06-03T05:58:22.739Z,20.90
2018-06-03T06:00:50.528Z,21.00
2018-06-03T06:03:18.273Z,21.80
2018-06-03T06:05:46.026Z,22.90
2018-06-03T06:08:13.768Z,23.60
2018-06-03T06:10:41.553Z,24.30
2018-06-03T06:13:09.480Z,23.90
2018-06-03T06:15:37.498Z,24.20
2018-06-03T06:18:05.274Z,24.50
2018-06-03T06:20:33.008Z,24.90
2018-06-03T06:23:00.843Z,25.00
2018-06-03T06:25:28.602Z,25.60
2018-06-03T06:27:57.389Z,26.00
2018-06-03T06:30:25.199Z,26.40
2018-06-03T06:32:53.071Z,26.60
2018-06-03T06:35:20.845Z,27.00
2018-06-03T06:37:48.643Z,27.10
2018-06-03T06:40:16.457Z,26.90
2018-06-03T06:42:44.255Z,27.50
2018-06-03T06:45:12.061Z,27.70
2018-06-03T06:47:39.813Z,27.50
2018-06-03T06:50:07.787Z,27.10
2018-06-03T06:52:35.592Z,26.80
2018-06-03T06:55:03.328Z,26.40
2018-06-03T06:57:32.338Z,26.60
2018-06-03T06:59:59.998Z,27.10
2018-06-03T07:02:27.927Z,28.00
2018-06-03T07:04:55.595Z,28.60
2018-06-03T07:07:23.790Z,28.90
2018-06-03T07:09:51.472Z,28.50
2018-06-03T07:12:19.450Z,29.00
2018-06-03T07:17:15.101Z,28.80
2018-06-03T07:19:43.209Z,29.50
2018-06-03T07:22:10.924Z,29.90
2018-06-03T07:24:38.585Z,30.00
2018-06-03T07:27:06.308Z,30.10
2018-06-03T07:29:34.188Z,29.90
2018-06-03T07:32:01.929Z,29.70
2018-06-03T07:34:29.736Z,28.50
2018-06-03T07:36:57.501Z,28.00
2018-06-03T07:39:25.289Z,28.30
2018-06-03T07:41:53.036Z,28.80
2018-06-03T07:44:20.804Z,29.30
2018-06-03T07:46:48.565Z,29.40
2018-06-03T07:49:16.380Z,29.30
2018-06-03T07:51:44.132Z,29.80
2018-06-03T07:54:11.839Z,30.10
2018-06-03T07:56:39.555Z,30.00
2018-06-03T07:59:07.276Z,29.60
2018-06-03T08:01:34.950Z,30.20
2018-06-03T08:04:02.719Z,30.60
2018-06-03T08:06:30.437Z,30.70
2018-06-03T08:08:58.121Z,30.80
2018-06-03T08:11:26.524Z,31.50
2018-06-03T08:13:54.738Z,32.30
2018-06-03T08:16:22.584Z,32.20
2018-06-03T08:18:50.385Z,31.40
2018-06-03T08:21:18.240Z,30.20
2018-06-03T08:23:46.140Z,30.40
2018-06-03T08:26:13.904Z,31.40
2018-06-03T08:28:41.684Z,30.90
2018-06-03T08:31:11.642Z,30.40
2018-06-03T08:33:44.388Z,29.40
2018-06-03T08:36:12.210Z,28.70
2018-06-03T08:38:39.955Z,29.00
2018-06-03T08:41:07.642Z,28.90
2018-06-03T08:43:35.351Z,29.60
2018-06-03T08:46:03.052Z,30.40
2018-06-03T08:48:30.763Z,31.70
2018-06-03T08:50:58.504Z,31.70
2018-06-03T08:53:26.186Z,31.50
2018-06-03T08:55:53.902Z,30.50
2018-06-03T08:58:21.575Z,29.90
2018-06-03T09:00:49.228Z,29.70
2018-06-03T09:03:16.965Z,29.60
2018-06-03T09:05:44.639Z,29.60
2018-06-03T09:08:12.291Z,30.70
2018-06-03T09:10:39.961Z,31.50
2018-06-03T09:13:07.664Z,32.60
2018-06-03T09:15:35.328Z,32.40
2018-06-03T09:18:03.078Z,32.00
2018-06-03T09:20:30.755Z,32.80
2018-06-03T09:22:58.405Z,32.50
2018-06-03T09:25:26.093Z,32.60
2018-06-03T09:27:53.815Z,32.80
2018-06-03T09:30:21.487Z,32.60
2018-06-03T09:32:49.166Z,33.00
2018-06-03T09:35:16.827Z,32.60
2018-06-03T09:37:44.536Z,32.10
2018-06-03T09:40:12.201Z,33.00
2018-06-03T09:42:39.881Z,33.00
2018-06-03T09:45:07.541Z,33.80
2018-06-03T09:47:35.248Z,34.10
2018-06-03T09:50:02.972Z,34.50
2018-06-03T09:52:30.709Z,32.80
2018-06-03T09:54:58.388Z,32.30
2018-06-03T09:57:26.057Z,31.40
2018-06-03T09:59:53.727Z,30.20
2018-06-03T10:02:21.398Z,30.20
2018-06-03T10:04:49.085Z,30.00
2018-06-03T10:07:16.933Z,29.40
2018-06-03T10:09:44.680Z,29.10
2018-06-03T10:12:12.385Z,29.20
2018-06-03T10:14:40.069Z,30.50
2018-06-03T10:17:07.732Z,31.30
2018-06-03T10:19:35.395Z,32.00
2018-06-03T10:22:03.095Z,32.50
2018-06-03T10:24:30.790Z,32.70
2018-06-03T10:26:58.507Z,32.30
2018-06-03T10:29:26.124Z,32.50
2018-06-03T10:31:53.794Z,32.60
2018-06-03T10:36:49.029Z,33.00
2018-06-03T10:39:16.728Z,32.10
2018-06-03T10:41:44.384Z,30.50
2018-06-03T10:44:12.060Z,30.30
2018-06-03T10:46:39.736Z,30.50
2018-06-03T10:49:07.405Z,31.20
2018-06-03T10:51:35.087Z,31.70
2018-06-03T10:54:02.802Z,32.20
2018-06-03T10:56:30.481Z,32.50
2018-06-03T10:58:58.707Z,32.60
2018-06-03T11:03:53.967Z,33.20
2018-06-03T11:06:21.627Z,31.90
2018-06-03T11:08:49.307Z,29.90
2018-06-03T11:11:17.009Z,29.60
2018-06-03T11:13:44.675Z,29.50
2018-06-03T11:16:12.353Z,29.00
2018-06-03T11:18:40.411Z,29.10
2018-06-03T11:21:08.135Z,28.90
2018-06-03T11:23:36.238Z,28.50
2018-06-03T11:26:03.991Z,28.50
2018-06-03T11:28:31.973Z,28.40
2018-06-03T11:30:59.733Z,28.30
2018-06-03T11:33:27.939Z,28.60
2018-06-03T11:35:55.599Z,28.80
2018-06-03T11:38:23.273Z,28.50
2018-06-03T11:40:51.035Z,28.10
2018-06-03T11:43:18.781Z,28.00
2018-06-03T11:45:47.049Z,27.80
2018-06-03T11:48:14.729Z,27.80
2018-06-03T11:50:42.408Z,27.80
2018-06-03T11:53:10.109Z,28.00
2018-06-03T11:55:42.085Z,28.30
2018-06-03T11:58:52.996Z,28.70
2018-06-03T12:01:20.813Z,28.90
2018-06-03T12:03:48.802Z,29.10
2018-06-03T12:06:16.541Z,29.30
2018-06-03T12:08:44.306Z,29.40
2018-06-03T12:11:12.007Z,29.10
2018-06-03T12:13:39.716Z,29.10
2018-06-03T12:16:07.383Z,28.70
2018-06-03T12:18:35.111Z,28.90
2018-06-03T12:21:02.927Z,28.80
2018-06-03T12:23:31.097Z,28.20
2018-06-03T12:25:58.788Z,27.80
2018-06-03T12:28:26.584Z,27.50
2018-06-03T12:30:54.209Z,27.30
2018-06-03T12:33:21.918Z,27.10
2018-06-03T12:35:49.795Z,26.90
2018-06-03T12:38:17.529Z,26.80
2018-06-03T12:43:12.801Z,27.00
2018-06-03T12:45:40.505Z,27.00
2018-06-03T12:48:08.217Z,26.80
2018-06-03T12:50:35.874Z,26.60
2018-06-03T12:53:03.588Z,26.70
2018-06-03T12:55:31.261Z,26.80
2018-06-03T12:57:59.069Z,26.90
2018-06-03T13:00:26.735Z,26.70
2018-06-03T13:02:54.424Z,26.70
2018-06-03T13:05:22.119Z,27.10
2018-06-03T13:07:49.809Z,27.50
2018-06-03T13:10:17.519Z,27.80
2018-06-03T13:12:45.221Z,28.10
2018-06-03T13:15:12.911Z,28.30
2018-06-03T13:17:40.581Z,28.30
2018-06-03T13:20:08.516Z,28.50
2018-06-03T13:22:36.213Z,28.60
2018-06-03T13:25:04.071Z,28.80
2018-06-03T13:27:31.861Z,29.00
2018-06-03T13:29:59.540Z,28.90
2018-06-03T13:32:27.252Z,28.80
2018-06-03T13:34:55.028Z,28.80
2018-06-03T13:37:22.763Z,28.20
2018-06-03T13:39:50.421Z,27.40
2018-06-03T13:42:18.377Z,27.20
2018-06-03T13:44:46.089Z,27.00
2018-06-03T13:47:13.731Z,26.70
2018-06-03T13:49:41.872Z,26.70
2018-06-03T13:52:09.528Z,26.70
2018-06-03T13:54:37.187Z,26.70
2018-06-03T13:57:04.878Z,26.80
2018-06-03T13:59:32.642Z,27.00
2018-06-03T14:02:00.307Z,27.50
2018-06-03T14:04:28.033Z,27.80
2018-06-03T14:06:55.723Z,27.80
2018-06-03T14:09:23.405Z,27.90
2018-06-03T14:11:51.097Z,28.10
2018-06-03T14:14:18.767Z,28.20
2018-06-03T14:16:46.459Z,27.90
2018-06-03T14:19:14.149Z,27.40
2018-06-03T14:24:09.377Z,26.90
2018-06-03T14:26:37.060Z,26.70
2018-06-03T14:29:04.757Z,26.50
2018-06-03T14:31:32.395Z,26.60
2018-06-03T14:34:00.090Z,26.60
2018-06-03T14:36:28.868Z,26.40
2018-06-03T14:38:56.647Z,27.20
2018-06-03T14:41:24.325Z,27.80
2018-06-03T14:43:51.999Z,27.50
2018-06-03T14:46:19.851Z,27.70
2018-06-03T14:48:47.555Z,27.80
2018-06-03T14:51:15.264Z,27.40
2018-06-03T14:53:42.957Z,27.10
2018-06-03T14:56:10.639Z,26.80
2018-06-03T14:58:38.251Z,26.60
2018-06-03T15:01:07.017Z,26.80
2018-06-03T15:03:35.652Z,26.70
2018-06-03T15:06:03.340Z,26.70
2018-06-03T15:08:32.035Z,26.60
2018-06-03T15:11:00.523Z,26.80
2018-06-03T15:13:28.200Z,27.30
2018-06-03T15:15:56.912Z,27.40
2018-06-03T15:18:24.609Z,27.00
2018-06-03T15:20:52.306Z,26.80
2018-06-03T15:23:20.003Z,26.40
2018-06-03T15:25:47.697Z,26.20
2018-06-03T15:28:15.370Z,26.00
2018-06-03T15:30:43.040Z,25.90
2018-06-03T15:33:11.133Z,26.10
2018-06-03T15:35:38.884Z,26.40
2018-06-03T15:38:06.559Z,26.60
2018-06-03T15:40:34.370Z,26.80
2018-06-03T15:43:02.056Z,26.90
2018-06-03T15:45:29.757Z,27.00
2018-06-03T15:47:57.487Z,27.10
2018-06-03T15:50:25.149Z,27.60
2018-06-03T15:52:52.839Z,27.50
2018-06-03T15:55:20.592Z,27.30
2018-06-03T15:57:48.267Z,27.40
2018-06-03T16:00:15.942Z,27.40
2018-06-03T16:02:43.670Z,27.20
2018-06-03T16:05:11.354Z,27.20
2018-06-03T16:07:39.079Z,27.10
2018-06-03T16:10:06.760Z,27.10
2018-06-03T16:12:34.444Z,27.00
2018-06-03T16:15:02.129Z,26.80
2018-06-03T16:17:29.844Z,26.80
2018-06-03T16:19:57.524Z,26.80
2018-06-03T16:22:25.266Z,26.50
2018-06-03T16:24:52.912Z,26.40
2018-06-03T16:27:20.744Z,26.20
2018-06-03T16:29:48.410Z,26.10
2018-06-03T16:32:16.064Z,25.80
2018-06-03T16:34:43.749Z,25.60
2018-06-03T16:37:11.479Z,25.30
2018-06-03T16:39:39.173Z,25.20
2018-06-03T16:42:07.385Z,25.20
2018-06-03T16:44:35.045Z,25.10
2018-06-03T16:47:02.845Z,25.00
2018-06-03T16:49:30.518Z,25.00
2018-06-03T16:51:58.209Z,25.10
2018-06-03T16:54:25.920Z,25.10
2018-06-03T16:56:53.628Z,25.20
2018-06-03T16:59:21.320Z,25.10
2018-06-03T17:01:49.083Z,25.20
2018-06-03T17:04:16.796Z,25.20
2018-06-03T17:06:44.454Z,25.20
2018-06-03T17:09:12.244Z,25.20
2018-06-03T17:11:39.972Z,25.30
2018-06-03T17:14:08.618Z,25.20
2018-06-03T17:16:36.311Z,25.20
2018-06-03T17:19:04.041Z,25.30
2018-06-03T17:21:31.719Z,25.30
2018-06-03T17:23:59.419Z,25.30
2018-06-03T17:26:27.145Z,25.20
2018-06-03T17:28:54.848Z,25.20
2018-06-03T17:31:22.533Z,25.20
2018-06-03T17:33:50.244Z,25.10
2018-06-03T17:36:17.946Z,25.10
2018-06-03T17:38:45.663Z,25.10
2018-06-03T17:41:13.422Z,25.00
2018-06-03T17:43:41.369Z,25.00
2018-06-03T17:46:09.114Z,24.80
2018-06-03T17:48:36.787Z,24.80
2018-06-03T17:51:04.529Z,24.90
2018-06-03T17:53:32.221Z,24.90
2018-06-03T17:55:59.885Z,25.00
2018-06-03T17:58:27.541Z,25.10
2018-06-03T18:00:55.216Z,25.10
2018-06-03T18:03:22.884Z,25.10
2018-06-03T18:05:50.552Z,25.00
2018-06-03T18:08:18.293Z,25.00
2018-06-03T18:10:46.025Z,25.00
2018-06-03T18:13:13.767Z,25.00
2018-06-03T18:15:41.687Z,25.10
2018-06-03T18:18:09.445Z,25.10
2018-06-03T18:20:37.161Z,25.10
2018-06-03T18:23:05.058Z,25.20
2018-06-03T18:25:32.728Z,25.20
2018-06-03T18:28:02.616Z,25.20
2018-06-03T18:30:30.638Z,25.20
2018-06-03T18:32:58.370Z,25.20
2018-06-03T18:35:26.585Z,25.40
2018-06-03T18:37:54.329Z,25.40
2018-06-03T18:40:22.033Z,25.40
2018-06-03T18:42:49.718Z,25.40
2018-06-03T18:45:24.211Z,25.20
2018-06-03T18:47:51.924Z,25.20
2018-06-03T18:50:21.543Z,25.00
2018-06-03T18:52:49.288Z,24.90
2018-06-03T18:55:16.983Z,24.80
2018-06-03T18:57:44.680Z,24.70
2018-06-03T19:00:12.426Z,24.50
2018-06-03T19:02:40.350Z,24.40
2018-06-03T19:05:08.059Z,24.40
2018-06-03T19:07:35.857Z,24.40
2018-06-03T19:10:03.648Z,24.40
2018-06-03T19:12:31.458Z,24.40
2018-06-03T19:14:59.070Z,24.30
2018-06-03T19:17:26.913Z,24.20
2018-06-03T19:22:22.212Z,24.10
2018-06-03T19:27:17.559Z,23.70
2018-06-03T19:29:45.257Z,23.60
2018-06-03T19:32:13.057Z,23.60
2018-06-03T19:34:40.751Z,23.60
2018-06-03T19:37:08.467Z,23.40
2018-06-03T19:39:36.241Z,23.40
2018-06-03T19:42:04.006Z,23.30
2018-06-03T19:44:31.819Z,23.20
2018-06-03T19:46:59.603Z,23.20
2018-06-03T19:49:27.274Z,23.00
2018-06-03T19:51:54.964Z,22.90
2018-06-03T19:54:22.693Z,22.90
2018-06-03T19:56:50.385Z,22.80
2018-06-03T19:59:18.088Z,22.80
2018-06-03T20:01:45.767Z,22.70
2018-06-03T20:04:13.488Z,22.50
2018-06-03T20:06:41.205Z,22.40
2018-06-03T20:09:09.113Z,22.40
2018-06-03T20:11:36.839Z,22.30
2018-06-03T20:14:04.516Z,22.30
2018-06-03T20:16:32.542Z,22.20
2018-06-03T20:19:00.261Z,22.00
2018-06-03T20:21:28.027Z,22.00
2018-06-03T20:23:55.713Z,22.00
2018-06-03T20:26:23.402Z,21.90
2018-06-03T20:28:51.159Z,21.80
2018-06-03T20:31:18.970Z,21.70
2018-06-03T20:33:46.766Z,21.60
2018-06-03T20:36:14.599Z,21.60
2018-06-03T20:38:43.137Z,21.50
2018-06-03T20:41:11.018Z,21.50
2018-06-03T20:43:39.249Z,21.50
2018-06-03T20:46:07.124Z,21.50
2018-06-03T20:48:35.062Z,21.40
2018-06-03T20:51:03.267Z,21.40
2018-06-03T20:53:31.231Z,21.30
2018-06-03T20:55:59.027Z,21.20
2018-06-03T20:58:27.147Z,21.20
2018-06-03T21:00:55.011Z,21.10
2018-06-03T21:03:22.889Z,21.10
2018-06-03T21:05:50.745Z,20.90
2018-06-03T21:08:19.849Z,20.90
2018-06-03T21:10:48.859Z,20.90
2018-06-03T21:13:17.536Z,20.80
2018-06-03T21:15:45.365Z,20.70
2018-06-03T21:18:13.233Z,20.70
2018-06-03T21:20:41.102Z,20.60
2018-06-03T21:23:08.883Z,20.60
2018-06-03T21:25:36.715Z,20.60
2018-06-03T21:28:04.625Z,20.60
2018-06-03T21:30:32.375Z,20.50
2018-06-03T21:33:00.234Z,20.40
2018-06-03T21:35:28.081Z,20.30
2018-06-03T21:37:55.887Z,20.40
2018-06-03T21:40:23.751Z,20.30
2018-06-03T21:42:52.259Z,20.30
2018-06-03T21:45:20.035Z,20.30
2018-06-03T21:47:49.015Z,20.30
2018-06-03T21:50:16.837Z,20.20
2018-06-03T21:52:44.651Z,20.20
2018-06-03T21:55:12.515Z,20.10
2018-06-03T21:57:40.347Z,20.10
2018-06-03T22:00:08.201Z,20.00
2018-06-03T22:02:36.037Z,20.00
2018-06-03T22:05:04.990Z,19.90
2018-06-03T22:07:32.819Z,19.90
2018-06-03T22:10:00.762Z,20.00
2018-06-03T22:12:28.649Z,19.70
2018-06-03T22:14:56.521Z,19.80
2018-06-03T22:17:24.354Z,19.90
2018-06-03T22:19:52.246Z,19.80
2018-06-03T22:22:20.247Z,19.80
2018-06-03T22:24:48.151Z,19.70
2018-06-03T22:27:16.022Z,19.70
2018-06-03T22:29:43.859Z,19.70
2018-06-03T22:32:11.675Z,19.60
2018-06-03T22:37:07.214Z,19.60
2018-06-03T22:42:02.905Z,19.50
2018-06-03T22:44:30.771Z,19.50
2018-06-03T22:46:58.538Z,19.30
2018-06-03T22:49:26.331Z,19.30
2018-06-03T22:51:54.111Z,19.20
2018-06-03T22:54:21.855Z,19.10
2018-06-03T22:57:55.143Z,19.10
2018-06-03T23:00:28.099Z,19.20
2018-06-03T23:03:01.464Z,19.10
2018-06-03T23:05:29.307Z,19.10
2018-06-03T23:07:57.169Z,18.90
2018-06-03T23:10:25.977Z,18.90
2018-06-03T23:12:53.916Z,19.00
2018-06-03T23:15:21.788Z,19.00
2018-06-03T23:17:49.595Z,18.90
2018-06-03T23:20:18.341Z,18.90
2018-06-03T23:22:47.107Z,18.90
2018-06-03T23:25:15.000Z,18.90
2018-06-03T23:27:42.920Z,18.90
2018-06-03T23:30:10.799Z,18.90
2018-06-03T23:32:39.235Z,18.90
2018-06-03T23:35:07.139Z,18.80
2018-06-03T23:37:35.036Z,18.80
2018-06-03T23:40:04.162Z,18.80
2018-06-03T23:42:32.631Z,18.70
2018-06-03T23:45:00.474Z,18.70
2018-06-03T23:47:28.335Z,18.70
2018-06-03T23:49:56.237Z,18.70
2018-06-03T23:52:24.104Z,18.70
2018-06-03T23:54:52.062Z,18.60
2018-06-03T23:57:20.272Z,18.60
2018-06-03T23:59:48.109Z,18.50
